createdAt,value
2023-03-08T00:01:19.411Z,10.90
2023-03-08T00:03:46.917Z,10.90
2023-03-08T00:06:15.955Z,10.90
2023-03-08T00:08:43.575Z,10.80
2023-03-08T00:11:12.950Z,10.90
2023-03-08T00:13:41.241Z,10.90
2023-03-08T00:16:11.386Z,10.80
2023-03-08T00:18:41.090Z,10.70
2023-03-08T00:21:12.284Z,10.60
2023-03-08T00:23:40.456Z,10.70
2023-03-08T00:26:07.864Z,10.70
2023-03-08T00:28:35.417Z,10.60
2023-03-08T00:31:07.262Z,10.60
2023-03-08T00:33:35.187Z,10.60
2023-03-08T00:36:05.690Z,10.60
2023-03-08T00:38:35.420Z,10.60
2023-03-08T00:41:03.889Z,10.60
2023-03-08T00:43:31.295Z,10.60
2023-03-08T00:46:03.378Z,10.60
2023-03-08T00:48:30.994Z,10.60
2023-03-08T00:50:58.350Z,10.60
2023-03-08T00:53:25.695Z,10.60
2023-03-08T00:55:55.001Z,10.60
2023-03-08T00:58:23.742Z,10.60
2023-03-08T01:00:51.322Z,10.60
2023-03-08T01:03:19.414Z,10.60
2023-03-08T01:05:51.681Z,10.50
2023-03-08T01:08:22.236Z,10.50
2023-03-08T01:11:00.402Z,10.40
2023-03-08T01:13:35.049Z,10.40
2023-03-08T01:16:03.085Z,10.40
2023-03-08T01:18:30.349Z,10.30
2023-03-08T01:21:01.045Z,10.30
2023-03-08T01:23:28.537Z,10.30
2023-03-08T01:26:06.209Z,10.20
2023-03-08T01:28:36.641Z,10.30
2023-03-08T01:31:06.022Z,10.30
2023-03-08T01:33:33.726Z,10.20
2023-03-08T01:36:09.687Z,10.20
2023-03-08T01:38:37.605Z,10.20
2023-03-08T01:41:11.227Z,10.20
2023-03-08T01:43:41.278Z,10.20
2023-03-08T01:46:16.281Z,10.20
2023-03-08T01:48:46.252Z,10.20
2023-03-08T01:51:18.116Z,10.20
2023-03-08T01:53:46.028Z,10.20
2023-03-08T01:56:17.538Z,10.20
2023-03-08T01:58:47.772Z,10.20
2023-03-08T02:01:16.003Z,10.20
2023-03-08T02:03:46.222Z,10.20
2023-03-08T02:06:19.354Z,10.10
2023-03-08T02:08:47.026Z,10.10
2023-03-08T02:11:18.498Z,10.10
2023-03-08T02:13:45.840Z,10.10
2023-03-08T02:16:14.879Z,10.10
2023-03-08T02:19:00.522Z,10.10
2023-03-08T02:21:29.597Z,10.10
2023-03-08T02:24:02.816Z,10.10
2023-03-08T02:26:30.159Z,10.10
2023-03-08T02:28:57.441Z,10.20
2023-03-08T02:31:24.702Z,10.20
2023-03-08T02:33:51.948Z,10.20
2023-03-08T02:36:21.707Z,10.20
2023-03-08T02:38:49.006Z,10.20
2023-03-08T02:41:20.354Z,10.20
2023-03-08T02:43:47.773Z,10.20
2023-03-08T02:46:15.248Z,10.20
2023-03-08T02:48:42.531Z,10.20
2023-03-08T02:51:09.821Z,10.10
2023-03-08T02:53:37.148Z,10.10
2023-03-08T02:56:04.700Z,10.10
2023-03-08T02:58:34.186Z,10.10
2023-03-08T03:01:01.576Z,10.10
2023-03-08T03:03:28.933Z,10.00
2023-03-08T03:05:56.256Z,10.00
2023-03-08T03:08:23.618Z,10.00
2023-03-08T03:10:51.032Z,10.00
2023-03-08T03:13:18.376Z,9.90
2023-03-08T03:15:45.689Z,9.90
2023-03-08T03:18:13.157Z,9.90
2023-03-08T03:20:40.549Z,9.90
2023-03-08T03:23:08.903Z,9.90
2023-03-08T03:25:38.921Z,9.90
2023-03-08T03:28:06.210Z,9.90
2023-03-08T03:30:33.536Z,10.00
2023-03-08T03:33:00.810Z,10.00
2023-03-08T03:35:28.155Z,10.00
2023-03-08T03:37:55.423Z,10.00
2023-03-08T03:40:25.143Z,10.00
2023-03-08T03:42:52.413Z,10.00
2023-03-08T03:45:19.723Z,10.00
2023-03-08T03:47:48.072Z,10.10
2023-03-08T03:50:15.388Z,10.10
2023-03-08T03:52:42.641Z,10.10
2023-03-08T03:55:10.308Z,10.10
2023-03-08T03:57:37.689Z,10.10
2023-03-08T04:00:06.150Z,10.20
2023-03-08T04:02:33.604Z,10.20
2023-03-08T04:05:00.946Z,10.20
2023-03-08T04:07:28.395Z,10.20
2023-03-08T04:09:58.003Z,10.20
2023-03-08T04:12:25.415Z,10.20
2023-03-08T04:14:54.514Z,10.20
2023-03-08T04:17:21.792Z,10.20
2023-03-08T04:19:51.666Z,10.20
2023-03-08T04:22:19.033Z,10.20
2023-03-08T04:24:46.319Z,10.20
2023-03-08T04:27:16.148Z,10.10
2023-03-08T04:29:43.432Z,10.10
2023-03-08T04:32:13.156Z,10.20
2023-03-08T04:34:45.402Z,10.10
2023-03-08T04:37:15.124Z,10.10
2023-03-08T04:39:42.481Z,10.10
2023-03-08T04:42:09.818Z,10.10
2023-03-08T04:44:39.300Z,10.10
2023-03-08T04:47:06.746Z,10.10
2023-03-08T04:49:34.011Z,10.10
2023-03-08T04:52:01.379Z,10.10
2023-03-08T04:54:28.742Z,10.00
2023-03-08T04:56:58.229Z,10.00
2023-03-08T04:59:25.695Z,10.00
2023-03-08T05:01:53.023Z,10.00
2023-03-08T05:04:20.302Z,9.90
2023-03-08T05:06:47.591Z,9.90
2023-03-08T05:09:15.049Z,9.90
2023-03-08T05:11:42.328Z,9.80
2023-03-08T05:14:10.157Z,9.80
2023-03-08T05:16:37.536Z,9.80
2023-03-08T05:19:04.832Z,9.70
2023-03-08T05:21:32.178Z,9.70
2023-03-08T05:24:00.378Z,9.70
2023-03-08T05:26:28.693Z,9.60
2023-03-08T05:28:56.217Z,9.60
2023-03-08T05:31:23.531Z,9.60
2023-03-08T05:33:52.188Z,9.60
2023-03-08T05:36:19.906Z,9.60
2023-03-08T05:38:48.109Z,9.50
2023-03-08T05:41:16.813Z,9.50
2023-03-08T05:43:44.873Z,9.50
2023-03-08T05:46:19.886Z,9.50
2023-03-08T05:48:49.589Z,9.50
2023-03-08T05:51:18.402Z,9.40
2023-03-08T05:53:48.218Z,9.40
2023-03-08T05:56:18.111Z,9.40
2023-03-08T05:58:47.970Z,9.40
2023-03-08T06:01:19.844Z,9.30
2023-03-08T06:03:49.737Z,9.30
2023-03-08T06:06:17.571Z,9.30
2023-03-08T06:08:45.123Z,9.30
2023-03-08T06:11:16.132Z,9.20
2023-03-08T06:13:43.825Z,9.20
2023-03-08T06:16:12.423Z,9.20
2023-03-08T06:18:41.263Z,9.20
2023-03-08T06:21:14.187Z,9.20
2023-03-08T06:23:41.976Z,9.20
2023-03-08T06:26:10.769Z,9.20
2023-03-08T06:28:40.367Z,9.20
2023-03-08T06:31:09.159Z,9.20
2023-03-08T06:33:36.476Z,9.20
2023-03-08T06:36:06.584Z,9.20
2023-03-08T06:38:36.465Z,9.20
2023-03-08T06:41:07.270Z,9.20
2023-03-08T06:43:35.827Z,9.30
2023-03-08T06:46:10.423Z,9.30
2023-03-08T06:48:40.823Z,9.30
2023-03-08T06:51:08.137Z,9.30
2023-03-08T06:53:41.082Z,9.40
2023-03-08T06:56:09.464Z,9.40
2023-03-08T06:58:37.301Z,9.40
2023-03-08T07:01:05.730Z,9.50
2023-03-08T07:03:34.017Z,9.60
2023-03-08T07:06:04.277Z,9.60
2023-03-08T07:08:32.404Z,9.70
2023-03-08T07:11:00.121Z,9.80
2023-03-08T07:13:29.109Z,9.90
2023-03-08T07:15:57.511Z,10.00
2023-03-08T07:18:25.466Z,10.10
2023-03-08T07:20:56.714Z,10.10
2023-03-08T07:23:24.381Z,10.20
2023-03-08T07:25:52.090Z,10.30
2023-03-08T07:28:19.509Z,10.40
2023-03-08T07:30:51.866Z,10.40
2023-03-08T07:33:20.826Z,10.50
2023-03-08T07:35:48.808Z,10.60
2023-03-08T07:38:17.292Z,10.70
2023-03-08T07:40:44.850Z,10.80
2023-03-08T07:43:12.470Z,10.90
2023-03-08T07:45:40.046Z,11.00
2023-03-08T07:48:07.735Z,11.10
2023-03-08T07:50:35.065Z,11.20
2023-03-08T07:53:04.414Z,11.30
2023-03-08T07:55:32.060Z,11.40
2023-03-08T07:57:59.332Z,11.40
2023-03-08T08:00:26.957Z,11.50
2023-03-08T08:02:54.394Z,11.60
2023-03-08T08:05:22.214Z,11.60
2023-03-08T08:07:49.620Z,11.70
2023-03-08T08:10:17.408Z,11.80
2023-03-08T08:12:47.002Z,11.80
2023-03-08T08:15:16.903Z,11.90
2023-03-08T08:17:46.946Z,11.90
2023-03-08T08:20:16.629Z,12.00
2023-03-08T08:22:44.021Z,12.00
2023-03-08T08:25:11.536Z,12.00
2023-03-08T08:27:43.403Z,12.10
2023-03-08T08:30:13.809Z,12.10
2023-03-08T08:32:41.207Z,12.10
2023-03-08T08:35:08.924Z,12.10
2023-03-08T08:37:38.802Z,12.20
2023-03-08T08:40:08.125Z,12.20
2023-03-08T08:42:35.553Z,12.20
2023-03-08T08:45:03.110Z,12.20
2023-03-08T08:47:30.656Z,12.30
2023-03-08T08:49:57.951Z,12.30
2023-03-08T08:52:27.703Z,12.30
2023-03-08T08:54:57.953Z,12.30
2023-03-08T08:57:25.209Z,12.30
2023-03-08T08:59:54.801Z,12.30
2023-03-08T09:02:26.488Z,12.30
2023-03-08T09:04:53.730Z,12.30
2023-03-08T09:07:23.070Z,12.30
2023-03-08T09:09:50.282Z,12.30
2023-03-08T09:12:17.573Z,12.30
2023-03-08T09:14:47.582Z,12.30
2023-03-08T09:17:14.832Z,12.30
2023-03-08T09:19:44.279Z,12.30
2023-03-08T09:22:11.745Z,12.30
2023-03-08T09:24:39.082Z,12.30
2023-03-08T09:27:06.995Z,12.30
2023-03-08T09:29:37.979Z,12.30
2023-03-08T09:32:08.731Z,12.30
2023-03-08T09:34:36.101Z,12.30
2023-03-08T09:37:03.842Z,12.30
2023-03-08T09:39:31.247Z,12.30
2023-03-08T09:42:01.445Z,12.30
2023-03-08T09:44:44.075Z,12.30
2023-03-08T09:47:13.264Z,12.40
2023-03-08T09:49:45.491Z,12.40
2023-03-08T09:52:21.442Z,12.50
2023-03-08T09:54:50.677Z,12.60
2023-03-08T09:57:26.718Z,12.60
2023-03-08T09:59:59.168Z,12.70
2023-03-08T10:02:41.242Z,12.80
2023-03-08T10:05:14.412Z,12.80
2023-03-08T10:08:06.488Z,12.90
2023-03-08T10:10:42.856Z,13.00
2023-03-08T10:13:36.102Z,13.10
2023-03-08T10:16:28.662Z,13.20
2023-03-08T10:19:24.512Z,13.30
2023-03-08T10:21:53.000Z,13.30
2023-03-08T10:24:28.089Z,13.40
2023-03-08T10:27:06.623Z,13.40
2023-03-08T10:29:33.851Z,13.50
2023-03-08T10:32:01.130Z,13.50
2023-03-08T10:34:35.163Z,13.50
2023-03-08T10:37:06.400Z,13.60
2023-03-08T10:39:36.398Z,13.60
2023-03-08T10:42:16.835Z,13.60
2023-03-08T10:44:53.136Z,13.70
2023-03-08T10:47:26.299Z,13.70
2023-03-08T10:50:08.497Z,13.80
2023-03-08T10:52:36.017Z,13.90
2023-03-08T10:55:09.352Z,13.90
2023-03-08T10:57:39.860Z,14.00
2023-03-08T11:00:35.247Z,14.10
2023-03-08T11:03:18.223Z,14.10
2023-03-08T11:05:59.496Z,14.20
2023-03-08T11:08:33.496Z,14.30
2023-03-08T11:11:02.702Z,14.40
2023-03-08T11:13:33.326Z,14.40
2023-03-08T11:16:21.952Z,14.50
2023-03-08T11:19:19.901Z,14.60
2023-03-08T11:22:02.350Z,14.60
2023-03-08T11:25:00.300Z,14.70
2023-03-08T11:27:41.014Z,14.80
2023-03-08T11:30:12.687Z,14.80
2023-03-08T11:32:49.457Z,14.80
2023-03-08T11:35:48.553Z,14.80
2023-03-08T11:38:30.483Z,14.80
2023-03-08T11:41:16.493Z,14.70
2023-03-08T11:43:55.612Z,14.70
2023-03-08T11:46:25.366Z,14.70
2023-03-08T11:49:14.560Z,14.70
2023-03-08T11:51:53.499Z,14.60
2023-03-08T11:54:38.629Z,14.60
2023-03-08T11:57:18.140Z,14.60
2023-03-08T11:59:52.945Z,14.60
2023-03-08T12:02:25.225Z,14.50
2023-03-08T12:05:20.174Z,14.60
2023-03-08T12:07:58.192Z,14.50
2023-03-08T12:10:45.029Z,14.50
2023-03-08T12:13:29.763Z,14.50
2023-03-08T12:16:16.409Z,14.50
2023-03-08T12:18:51.722Z,14.50
2023-03-08T12:21:34.433Z,14.50
2023-03-08T12:24:17.110Z,14.50
2023-03-08T12:26:59.001Z,14.40
2023-03-08T12:29:47.815Z,14.40
2023-03-08T12:32:19.112Z,14.40
2023-03-08T12:34:48.222Z,14.40
2023-03-08T12:37:25.455Z,14.40
2023-03-08T12:39:58.940Z,14.40
2023-03-08T12:42:36.401Z,14.30
2023-03-08T12:45:19.424Z,14.30
2023-03-08T12:48:05.232Z,14.30
2023-03-08T12:50:46.405Z,14.30
2023-03-08T12:53:35.724Z,14.20
2023-03-08T12:56:23.281Z,14.20
2023-03-08T12:59:21.478Z,14.20
2023-03-08T13:01:57.518Z,14.20
2023-03-08T13:04:41.750Z,14.10
2023-03-08T13:07:22.320Z,14.10
2023-03-08T13:10:05.204Z,14.10
2023-03-08T13:12:52.938Z,14.10
2023-03-08T13:15:24.548Z,14.10
2023-03-08T13:17:51.834Z,14.10
2023-03-08T13:20:24.312Z,14.10
2023-03-08T13:23:15.540Z,14.10
2023-03-08T13:26:10.362Z,14.10
2023-03-08T13:28:47.831Z,14.00
2023-03-08T13:31:18.422Z,14.00
2023-03-08T13:33:49.770Z,14.00
2023-03-08T13:36:24.745Z,14.00
2023-03-08T13:39:00.069Z,14.00
2023-03-08T13:41:43.776Z,14.00
2023-03-08T13:44:29.188Z,14.00
2023-03-08T13:47:03.043Z,14.00
2023-03-08T13:49:35.770Z,14.10
2023-03-08T13:52:13.218Z,14.00
2023-03-08T13:54:45.656Z,14.00
2023-03-08T13:57:23.879Z,14.00
2023-03-08T13:59:54.532Z,14.00
2023-03-08T14:02:26.452Z,14.00
2023-03-08T14:04:59.674Z,14.00
2023-03-08T14:07:32.278Z,14.00
2023-03-08T14:10:01.809Z,13.90
2023-03-08T14:12:33.457Z,13.90
2023-03-08T14:15:04.552Z,14.00
2023-03-08T14:17:35.854Z,14.00
2023-03-08T14:20:20.903Z,14.00
2023-03-08T14:22:50.601Z,14.00
2023-03-08T14:25:22.528Z,14.00
2023-03-08T14:27:50.114Z,14.00
2023-03-08T14:30:32.404Z,14.00
2023-03-08T14:33:04.099Z,14.00
2023-03-08T14:35:33.407Z,14.00
2023-03-08T14:38:00.989Z,14.00
2023-03-08T14:40:35.662Z,14.10
2023-03-08T14:43:15.696Z,14.10
2023-03-08T14:45:59.428Z,14.00
2023-03-08T14:48:32.412Z,14.00
2023-03-08T14:51:17.756Z,14.00
2023-03-08T14:54:00.792Z,14.00
2023-03-08T14:56:31.950Z,14.00
2023-03-08T14:59:01.337Z,14.00
2023-03-08T15:01:34.252Z,14.00
2023-03-08T15:04:06.775Z,14.00
2023-03-08T15:06:36.733Z,14.00
2023-03-08T15:09:07.698Z,14.00
2023-03-08T15:11:37.345Z,14.00
2023-03-08T15:14:06.863Z,14.00
2023-03-08T15:16:34.167Z,14.10
2023-03-08T15:19:01.490Z,14.10
2023-03-08T15:21:32.253Z,14.10
2023-03-08T15:24:04.641Z,14.10
2023-03-08T15:26:34.663Z,14.10
2023-03-08T15:29:06.244Z,14.10
2023-03-08T15:31:35.879Z,14.10
2023-03-08T15:34:03.752Z,14.10
2023-03-08T15:36:34.712Z,14.10
2023-03-08T15:39:04.659Z,14.10
2023-03-08T15:41:32.005Z,14.10
2023-03-08T15:43:59.263Z,14.10
2023-03-08T15:46:26.617Z,14.10
2023-03-08T15:48:56.431Z,14.10
2023-03-08T15:51:29.645Z,14.10
2023-03-08T15:53:59.357Z,14.10
2023-03-08T15:56:28.755Z,14.10
2023-03-08T15:58:56.667Z,14.10
2023-03-08T16:01:26.306Z,14.10
2023-03-08T16:03:55.813Z,14.10
2023-03-08T16:06:23.232Z,14.10
2023-03-08T16:08:50.771Z,14.10
2023-03-08T16:11:22.200Z,14.10
2023-03-08T16:13:51.547Z,14.00
2023-03-08T16:16:20.111Z,14.10
2023-03-08T16:18:48.555Z,14.10
2023-03-08T16:21:19.007Z,14.10
2023-03-08T16:23:46.239Z,14.10
2023-03-08T16:26:17.401Z,14.10
2023-03-08T16:28:46.884Z,14.10
2023-03-08T16:31:15.578Z,14.10
2023-03-08T16:33:42.976Z,14.10
2023-03-08T16:36:14.046Z,14.10
2023-03-08T16:38:41.882Z,14.10
2023-03-08T16:41:13.120Z,14.10
2023-03-08T16:43:47.751Z,14.10
2023-03-08T16:46:17.938Z,14.10
2023-03-08T16:48:49.357Z,14.10
2023-03-08T16:51:18.746Z,14.10
2023-03-08T16:53:46.484Z,14.10
2023-03-08T16:56:27.241Z,14.10
2023-03-08T16:58:56.189Z,14.10
2023-03-08T17:01:24.385Z,14.00
2023-03-08T17:03:58.538Z,14.00
2023-03-08T17:06:28.971Z,14.00
2023-03-08T17:09:00.403Z,14.00
2023-03-08T17:11:30.585Z,14.00
2023-03-08T17:14:05.121Z,14.00
2023-03-08T17:16:33.802Z,14.00
2023-03-08T17:19:08.011Z,14.00
2023-03-08T17:21:38.140Z,14.00
2023-03-08T17:24:10.039Z,14.00
2023-03-08T17:26:42.281Z,14.00
2023-03-08T17:29:09.742Z,14.00
2023-03-08T17:31:41.711Z,14.00
2023-03-08T17:34:11.530Z,14.00
2023-03-08T17:36:41.547Z,14.00
2023-03-08T17:39:09.106Z,14.00
2023-03-08T17:41:38.512Z,14.00
2023-03-08T17:44:05.856Z,14.00
2023-03-08T17:46:33.126Z,14.00
2023-03-08T17:49:02.916Z,14.00
2023-03-08T17:51:34.363Z,14.00
2023-03-08T17:54:03.070Z,13.90
2023-03-08T17:56:31.883Z,14.00
2023-03-08T17:59:00.587Z,14.00
2023-03-08T18:01:30.139Z,14.00
2023-03-08T18:03:58.136Z,14.00
2023-03-08T18:06:38.595Z,14.00
2023-03-08T18:09:08.520Z,13.90
2023-03-08T18:11:37.732Z,13.90
2023-03-08T18:14:09.394Z,13.90
2023-03-08T18:16:36.959Z,13.90
2023-03-08T18:19:04.789Z,13.90
2023-03-08T18:21:36.148Z,13.80
2023-03-08T18:24:05.247Z,13.80
2023-03-08T18:26:35.411Z,13.80
2023-03-08T18:29:04.907Z,13.80
2023-03-08T18:31:37.384Z,13.80
2023-03-08T18:34:06.066Z,13.80
2023-03-08T18:36:34.056Z,13.70
2023-03-08T18:39:05.661Z,13.70
2023-03-08T18:41:36.282Z,13.70
2023-03-08T18:44:08.636Z,13.70
2023-03-08T18:46:38.541Z,13.70
2023-03-08T18:49:10.483Z,13.70
2023-03-08T18:51:41.834Z,13.70
2023-03-08T18:54:13.361Z,13.70
2023-03-08T18:56:40.746Z,13.70
2023-03-08T18:59:11.373Z,13.70
2023-03-08T19:01:38.705Z,13.70
2023-03-08T19:04:07.994Z,13.70
2023-03-08T19:06:36.414Z,13.60
2023-03-08T19:09:13.899Z,13.70
2023-03-08T19:11:44.267Z,13.60
2023-03-08T19:14:15.066Z,13.60
2023-03-08T19:16:42.843Z,13.60
2023-03-08T19:19:13.576Z,13.60
2023-03-08T19:21:45.732Z,13.60
2023-03-08T19:24:19.279Z,13.60
2023-03-08T19:26:51.198Z,13.60
2023-03-08T19:29:21.637Z,13.60
2023-03-08T19:31:52.232Z,13.50
2023-03-08T19:34:31.662Z,13.60
2023-03-08T19:37:02.451Z,13.50
2023-03-08T19:39:32.966Z,13.60
2023-03-08T19:42:03.489Z,13.50
2023-03-08T19:44:31.732Z,13.50
2023-03-08T19:46:59.780Z,13.50
2023-03-08T19:49:31.602Z,13.50
2023-03-08T19:52:01.031Z,13.50
2023-03-08T19:54:29.555Z,13.50
2023-03-08T19:56:57.581Z,13.50
2023-03-08T19:59:27.674Z,13.50
2023-03-08T20:01:55.972Z,13.50
2023-03-08T20:04:26.514Z,13.40
2023-03-08T20:06:56.271Z,13.40
2023-03-08T20:09:23.908Z,13.40
2023-03-08T20:11:58.395Z,13.40
2023-03-08T20:14:27.593Z,13.40
2023-03-08T20:16:55.804Z,13.40
2023-03-08T20:19:23.207Z,13.30
2023-03-08T20:21:50.760Z,13.30
2023-03-08T20:24:18.871Z,13.30
2023-03-08T20:26:46.982Z,13.30
2023-03-08T20:29:14.381Z,13.30
2023-03-08T20:31:41.871Z,13.30
2023-03-08T20:34:09.294Z,13.30
2023-03-08T20:36:42.147Z,13.30
2023-03-08T20:39:10.855Z,13.30
2023-03-08T20:41:38.134Z,13.30
2023-03-08T20:44:05.443Z,13.20
2023-03-08T20:46:33.854Z,13.30
2023-03-08T20:49:04.036Z,13.30
2023-03-08T20:51:31.319Z,13.30
2023-03-08T20:53:58.644Z,13.30
2023-03-08T20:56:26.547Z,13.30
2023-03-08T20:59:00.497Z,13.30
2023-03-08T21:01:36.887Z,13.30
2023-03-08T21:04:05.850Z,13.30
2023-03-08T21:06:35.350Z,13.30
2023-03-08T21:09:03.287Z,13.30
2023-03-08T21:11:31.100Z,13.30
2023-03-08T21:13:58.378Z,13.30
2023-03-08T21:16:29.143Z,13.30
2023-03-08T21:19:00.453Z,13.30
2023-03-08T21:21:40.686Z,13.30
2023-03-08T21:24:10.607Z,13.30
2023-03-08T21:26:38.181Z,13.30
2023-03-08T21:29:07.987Z,13.20
2023-03-08T21:31:39.175Z,13.30
2023-03-08T21:34:11.009Z,13.20
2023-03-08T21:36:41.304Z,13.20
2023-03-08T21:39:09.066Z,13.20
2023-03-08T21:41:39.015Z,13.20
2023-03-08T21:44:09.703Z,13.20
2023-03-08T21:46:38.624Z,13.20
2023-03-08T21:49:09.192Z,13.20
2023-03-08T21:51:38.914Z,13.20
2023-03-08T21:54:06.306Z,13.20
2023-03-08T21:56:36.488Z,13.20
2023-03-08T21:59:04.083Z,13.20
2023-03-08T22:01:34.352Z,13.30
2023-03-08T22:04:03.058Z,13.20
2023-03-08T22:06:30.753Z,13.30
2023-03-08T22:08:58.297Z,13.30
2023-03-08T22:11:28.538Z,13.30
2023-03-08T22:13:58.115Z,13.30
2023-03-08T22:16:26.497Z,13.30
2023-03-08T22:18:55.893Z,13.20
2023-03-08T22:21:25.809Z,13.20
2023-03-08T22:23:54.203Z,13.20
2023-03-08T22:26:25.672Z,13.20
2023-03-08T22:28:54.808Z,13.10
2023-03-08T22:31:27.154Z,13.20
2023-03-08T22:33:54.726Z,13.20
2023-03-08T22:36:23.203Z,13.10
2023-03-08T22:38:53.215Z,13.20
2023-03-08T22:41:25.820Z,13.10
2023-03-08T22:43:56.255Z,13.10
2023-03-08T22:46:26.569Z,13.10
2023-03-08T22:48:59.169Z,13.10
2023-03-08T22:51:29.605Z,13.20
2023-03-08T22:54:03.888Z,13.10
2023-03-08T22:56:35.101Z,13.10
2023-03-08T22:59:03.055Z,13.10
2023-03-08T23:01:32.402Z,13.20
2023-03-08T23:04:03.241Z,13.10
2023-03-08T23:06:31.830Z,13.20
2023-03-08T23:09:06.163Z,13.20
2023-03-08T23:11:34.050Z,13.20
2023-03-08T23:14:01.416Z,13.20
2023-03-08T23:16:29.433Z,13.20
2023-03-08T23:18:56.758Z,13.20
2023-03-08T23:21:26.222Z,13.30
2023-03-08T23:23:53.630Z,13.30
2023-03-08T23:26:24.600Z,13.30
2023-03-08T23:28:58.007Z,13.30
2023-03-08T23:31:28.222Z,13.40
2023-03-08T23:33:56.907Z,13.40
2023-03-08T23:36:25.698Z,13.40
2023-03-08T23:38:55.854Z,13.30
2023-03-08T23:41:23.686Z,13.40
2023-03-08T23:43:57.929Z,13.40
2023-03-08T23:46:26.020Z,13.40
2023-03-08T23:48:55.957Z,13.40
2023-03-08T23:51:25.747Z,13.40
2023-03-08T23:53:57.701Z,13.40
2023-03-08T23:56:37.867Z,13.40
2023-03-08T23:59:13.171Z,13.40
